createdAt,value
2017-08-12T00:01:38.962Z,14.80
2017-08-12T00:04:06.707Z,14.80
2017-08-12T00:06:34.438Z,14.80
2017-08-12T00:09:02.189Z,14.70
2017-08-12T00:11:29.928Z,14.80
2017-08-12T00:13:57.654Z,14.90
2017-08-12T00:16:25.414Z,14.90
2017-08-12T00:18:53.141Z,14.80
2017-08-12T00:21:20.878Z,14.80
2017-08-12T00:23:48.608Z,14.80
2017-08-12T00:26:16.345Z,14.80
2017-08-12T00:28:44.874Z,14.90
2017-08-12T00:31:12.623Z,14.90
2017-08-12T00:33:40.371Z,14.80
2017-08-12T00:36:08.113Z,14.90
2017-08-12T00:38:36.523Z,14.90
2017-08-12T00:41:04.267Z,14.80
2017-08-12T00:43:32.015Z,14.80
2017-08-12T00:45:59.780Z,14.80
2017-08-12T00:48:27.521Z,14.80
2017-08-12T00:50:55.572Z,14.80
2017-08-12T00:53:23.363Z,14.80
2017-08-12T00:55:51.134Z,14.80
2017-08-12T00:58:18.911Z,14.80
2017-08-12T01:00:46.739Z,14.80
2017-08-12T01:03:14.486Z,14.80
2017-08-12T01:05:42.222Z,14.80
2017-08-12T01:08:09.951Z,14.80
2017-08-12T01:10:37.710Z,14.80
2017-08-12T01:13:06.222Z,14.70
2017-08-12T01:15:34.564Z,14.70
2017-08-12T01:18:02.307Z,14.80
2017-08-12T01:20:30.038Z,14.80
2017-08-12T01:22:57.764Z,14.80
2017-08-12T01:25:25.515Z,14.70
2017-08-12T01:27:53.262Z,14.70
2017-08-12T01:30:21.000Z,14.70
2017-08-12T01:32:48.732Z,14.80
2017-08-12T01:35:16.447Z,14.80
2017-08-12T01:37:44.227Z,14.80
2017-08-12T01:40:13.616Z,14.80
2017-08-12T01:42:41.343Z,14.80
2017-08-12T01:45:09.078Z,14.70
2017-08-12T01:47:36.824Z,14.70
2017-08-12T01:50:05.315Z,14.70
2017-08-12T01:52:33.820Z,14.70
2017-08-12T01:55:01.550Z,14.70
2017-08-12T01:57:29.343Z,14.70
2017-08-12T01:59:57.068Z,14.70
2017-08-12T02:02:25.539Z,14.70
2017-08-12T02:04:53.272Z,14.70
2017-08-12T02:07:21.009Z,14.70
2017-08-12T02:09:48.748Z,14.70
2017-08-12T02:12:16.478Z,14.70
2017-08-12T02:14:44.223Z,14.70
2017-08-12T02:17:11.967Z,14.70
2017-08-12T02:19:39.685Z,14.60
2017-08-12T02:22:07.429Z,14.70
2017-08-12T02:24:35.164Z,14.60
2017-08-12T02:27:02.886Z,14.60
2017-08-12T02:29:31.378Z,14.60
2017-08-12T02:31:59.751Z,14.60
2017-08-12T02:34:27.488Z,14.60
2017-08-12T02:36:55.207Z,14.60
2017-08-12T02:39:22.942Z,14.60
2017-08-12T02:41:51.450Z,14.60
2017-08-12T02:44:19.203Z,14.60
2017-08-12T02:46:46.943Z,14.60
2017-08-12T02:49:15.450Z,14.60
2017-08-12T02:51:43.180Z,14.60
2017-08-12T02:54:10.937Z,14.60
2017-08-12T02:56:38.668Z,14.50
2017-08-12T02:59:06.414Z,14.60
2017-08-12T03:01:34.138Z,14.50
2017-08-12T03:04:02.626Z,14.60
2017-08-12T03:06:30.394Z,14.60
2017-08-12T03:08:58.154Z,14.60
2017-08-12T03:11:25.885Z,14.60
2017-08-12T03:13:53.610Z,14.70
2017-08-12T03:16:21.342Z,14.60
2017-08-12T03:18:49.144Z,14.60
2017-08-12T03:21:16.860Z,14.60
2017-08-12T03:23:44.599Z,14.60
2017-08-12T03:26:12.336Z,14.50
2017-08-12T03:28:40.111Z,14.50
2017-08-12T03:31:07.844Z,14.50
2017-08-12T03:33:35.571Z,14.50
2017-08-12T03:36:04.197Z,14.60
2017-08-12T03:38:31.932Z,14.50
2017-08-12T03:41:00.424Z,14.50
2017-08-12T03:43:28.735Z,14.50
2017-08-12T03:45:56.459Z,14.50
2017-08-12T03:48:24.955Z,14.40
2017-08-12T03:50:52.722Z,14.40
2017-08-12T03:53:20.473Z,14.40
2017-08-12T03:55:48.223Z,14.40
2017-08-12T03:58:15.973Z,14.50
2017-08-12T04:00:43.687Z,14.50
2017-08-12T04:03:11.413Z,14.50
2017-08-12T04:05:39.230Z,14.50
2017-08-12T04:08:06.958Z,14.40
2017-08-12T04:10:34.699Z,14.40
2017-08-12T04:13:02.428Z,14.40
2017-08-12T04:15:30.180Z,14.40
2017-08-12T04:17:57.903Z,14.40
2017-08-12T04:20:25.639Z,14.40
2017-08-12T04:22:53.380Z,14.50
2017-08-12T04:25:21.118Z,14.50
2017-08-12T04:27:48.843Z,14.60
2017-08-12T04:30:16.587Z,14.50
2017-08-12T04:32:44.325Z,14.50
2017-08-12T04:35:12.055Z,14.50
2017-08-12T04:37:39.802Z,14.60
2017-08-12T04:40:07.539Z,14.60
2017-08-12T04:42:35.286Z,14.60
2017-08-12T04:45:03.035Z,14.60
2017-08-12T04:47:30.773Z,14.70
2017-08-12T04:49:58.514Z,14.60
2017-08-12T04:52:26.235Z,14.60
2017-08-12T04:54:54.281Z,14.70
2017-08-12T04:57:22.028Z,14.70
2017-08-12T04:59:49.767Z,14.60
2017-08-12T05:02:17.527Z,14.60
2017-08-12T05:04:46.190Z,14.70
2017-08-12T05:07:13.928Z,14.70
2017-08-12T05:09:42.082Z,14.70
2017-08-12T05:12:09.848Z,14.70
2017-08-12T05:14:37.579Z,14.70
2017-08-12T05:17:05.315Z,14.70
2017-08-12T05:19:33.051Z,14.70
2017-08-12T05:22:00.802Z,14.80
2017-08-12T05:24:28.539Z,14.70
2017-08-12T05:26:56.297Z,14.80
2017-08-12T05:29:24.495Z,14.80
2017-08-12T05:31:53.002Z,14.80
2017-08-12T05:34:20.747Z,14.70
2017-08-12T05:36:48.525Z,14.80
2017-08-12T05:39:16.527Z,14.80
2017-08-12T05:41:44.256Z,14.80
2017-08-12T05:44:11.991Z,14.80
2017-08-12T05:46:40.508Z,14.90
2017-08-12T05:49:08.248Z,14.90
2017-08-12T05:51:35.966Z,14.80
2017-08-12T05:54:03.712Z,14.90
2017-08-12T05:56:31.476Z,14.90
2017-08-12T05:58:59.271Z,14.90
2017-08-12T06:01:26.997Z,14.90
2017-08-12T06:03:54.755Z,14.90
2017-08-12T06:06:23.235Z,14.90
2017-08-12T06:08:50.973Z,14.90
2017-08-12T06:11:19.570Z,15.00
2017-08-12T06:13:47.323Z,15.00
2017-08-12T06:16:15.951Z,15.10
2017-08-12T06:18:43.680Z,15.10
2017-08-12T06:21:11.455Z,14.80
2017-08-12T06:23:39.208Z,14.70
2017-08-12T06:26:06.958Z,14.70
2017-08-12T06:28:34.708Z,14.60
2017-08-12T06:31:02.869Z,14.60
2017-08-12T06:33:30.611Z,14.60
2017-08-12T06:35:58.338Z,14.70
2017-08-12T06:38:27.068Z,14.80
2017-08-12T06:40:54.834Z,14.90
2017-08-12T06:43:22.570Z,14.90
2017-08-12T06:45:51.077Z,15.00
2017-08-12T06:48:18.882Z,15.00
2017-08-12T06:50:46.680Z,15.10
2017-08-12T06:53:14.460Z,15.10
2017-08-12T06:55:42.210Z,15.10
2017-08-12T06:58:09.934Z,15.10
2017-08-12T07:00:37.688Z,15.10
2017-08-12T07:03:05.451Z,15.10
2017-08-12T07:05:33.199Z,15.00
2017-08-12T07:08:00.919Z,14.90
2017-08-12T07:10:28.666Z,14.90
2017-08-12T07:12:56.446Z,14.90
2017-08-12T07:15:24.828Z,14.90
2017-08-12T07:17:52.543Z,14.90
2017-08-12T07:20:20.295Z,15.00
2017-08-12T07:22:48.053Z,15.10
2017-08-12T07:25:15.784Z,15.10
2017-08-12T07:27:43.920Z,15.20
2017-08-12T07:30:12.448Z,15.20
2017-08-12T07:32:40.184Z,15.20
2017-08-12T07:35:09.072Z,15.30
2017-08-12T07:37:36.807Z,15.40
2017-08-12T07:40:04.543Z,15.50
2017-08-12T07:42:32.759Z,15.40
2017-08-12T07:45:00.511Z,15.40
2017-08-12T07:47:28.255Z,15.40
2017-08-12T07:49:55.990Z,15.50
2017-08-12T07:52:23.715Z,15.50
2017-08-12T07:54:51.470Z,15.50
2017-08-12T07:57:19.279Z,15.50
2017-08-12T07:59:47.407Z,15.50
2017-08-12T08:02:15.164Z,15.50
2017-08-12T08:04:42.905Z,15.60
2017-08-12T08:07:10.658Z,15.70
2017-08-12T08:09:38.424Z,15.90
2017-08-12T08:12:06.179Z,16.10
2017-08-12T08:14:34.026Z,16.20
2017-08-12T08:17:01.795Z,16.30
2017-08-12T08:19:29.564Z,16.30
2017-08-12T08:21:57.297Z,16.40
2017-08-12T08:24:25.032Z,16.30
2017-08-12T08:26:52.789Z,16.00
2017-08-12T08:29:20.543Z,15.90
2017-08-12T08:31:48.285Z,15.90
2017-08-12T08:34:16.049Z,15.90
2017-08-12T08:36:43.831Z,15.90
2017-08-12T08:39:11.580Z,15.80
2017-08-12T08:41:39.324Z,15.80
2017-08-12T08:44:07.855Z,15.80
2017-08-12T08:46:36.244Z,15.80
2017-08-12T08:49:03.979Z,15.70
2017-08-12T08:51:32.237Z,15.70
2017-08-12T08:54:00.483Z,15.70
2017-08-12T08:56:28.272Z,15.70
2017-08-12T08:58:56.438Z,15.80
2017-08-12T09:01:24.200Z,16.00
2017-08-12T09:03:52.251Z,16.00
2017-08-12T09:06:20.048Z,16.30
2017-08-12T09:08:47.807Z,16.40
2017-08-12T09:11:15.543Z,16.40
2017-08-12T09:13:43.308Z,16.50
2017-08-12T09:16:11.039Z,16.50
2017-08-12T09:18:38.794Z,16.60
2017-08-12T09:21:06.530Z,16.60
2017-08-12T09:23:35.403Z,16.50
2017-08-12T09:26:03.147Z,16.50
2017-08-12T09:28:30.885Z,16.40
2017-08-12T09:30:58.623Z,16.40
2017-08-12T09:33:26.368Z,16.40
2017-08-12T09:35:54.500Z,16.30
2017-08-12T09:38:22.239Z,16.30
2017-08-12T09:40:50.976Z,16.40
2017-08-12T09:43:18.746Z,16.50
2017-08-12T09:45:46.482Z,16.60
2017-08-12T09:48:14.247Z,16.50
2017-08-12T09:50:42.009Z,16.60
2017-08-12T09:53:09.757Z,16.60
2017-08-12T09:55:37.503Z,16.80
2017-08-12T09:58:05.800Z,17.00
2017-08-12T10:00:33.984Z,17.30
2017-08-12T10:03:01.728Z,17.70
2017-08-12T10:05:29.445Z,17.90
2017-08-12T10:07:57.179Z,18.10
2017-08-12T10:10:24.908Z,18.20
2017-08-12T10:12:52.684Z,18.50
2017-08-12T10:15:20.480Z,18.50
2017-08-12T10:17:48.212Z,18.20
2017-08-12T10:20:15.962Z,18.20
2017-08-12T10:22:43.699Z,18.20
2017-08-12T10:25:12.757Z,18.50
2017-08-12T10:27:40.491Z,18.50
2017-08-12T10:30:08.231Z,18.30
2017-08-12T10:32:35.974Z,18.50
2017-08-12T10:35:04.478Z,18.80
2017-08-12T10:37:32.216Z,19.00
2017-08-12T10:39:59.954Z,19.10
2017-08-12T10:42:27.706Z,19.30
2017-08-12T10:44:55.460Z,19.60
2017-08-12T10:47:23.188Z,19.80
2017-08-12T10:49:51.048Z,20.10
2017-08-12T10:52:20.590Z,20.30
2017-08-12T10:54:48.322Z,20.20
2017-08-12T10:57:16.059Z,20.50
2017-08-12T10:59:43.826Z,20.50
2017-08-12T11:02:11.546Z,20.40
2017-08-12T11:04:39.297Z,20.30
2017-08-12T11:07:07.047Z,20.50
2017-08-12T11:09:34.787Z,20.70
2017-08-12T11:12:02.561Z,20.80
2017-08-12T11:14:30.307Z,20.80
2017-08-12T11:16:58.071Z,21.00
2017-08-12T11:19:25.822Z,21.00
2017-08-12T11:21:53.566Z,21.00
2017-08-12T11:24:21.361Z,21.00
2017-08-12T11:26:49.084Z,21.20
2017-08-12T11:29:16.830Z,21.40
2017-08-12T11:31:44.586Z,21.60
2017-08-12T11:34:12.347Z,21.70
2017-08-12T11:36:40.115Z,21.60
2017-08-12T11:39:07.900Z,21.50
2017-08-12T11:41:35.640Z,21.60
2017-08-12T11:44:03.390Z,21.50
2017-08-12T11:46:31.153Z,21.70
2017-08-12T11:48:59.648Z,22.00
2017-08-12T11:51:28.643Z,22.00
2017-08-12T11:53:56.380Z,22.60
2017-08-12T11:56:24.121Z,22.60
2017-08-12T11:58:51.854Z,22.50
2017-08-12T12:01:19.627Z,22.80
2017-08-12T12:03:47.354Z,22.90
2017-08-12T12:06:15.103Z,22.90
2017-08-12T12:08:42.852Z,22.80
2017-08-12T12:11:10.594Z,22.70
2017-08-12T12:13:38.316Z,22.50
2017-08-12T12:16:06.075Z,21.90
2017-08-12T12:18:33.823Z,21.70
2017-08-12T12:21:01.562Z,21.70
2017-08-12T12:23:29.304Z,22.00
2017-08-12T12:25:57.026Z,22.20
2017-08-12T12:28:25.770Z,22.20
2017-08-12T12:30:53.536Z,22.10
2017-08-12T12:33:22.203Z,22.30
2017-08-12T12:35:49.940Z,22.40
2017-08-12T12:38:19.019Z,22.70
2017-08-12T12:40:46.752Z,22.70
2017-08-12T12:43:14.552Z,22.40
2017-08-12T12:45:42.285Z,22.40
2017-08-12T12:48:10.010Z,22.20
2017-08-12T12:50:37.747Z,22.20
2017-08-12T12:53:05.495Z,22.20
2017-08-12T12:55:34.016Z,22.30
2017-08-12T12:58:01.749Z,22.20
2017-08-12T13:00:29.485Z,22.20
2017-08-12T13:02:57.228Z,22.00
2017-08-12T13:05:24.955Z,21.90
2017-08-12T13:07:52.703Z,22.00
2017-08-12T13:10:20.431Z,22.30
2017-08-12T13:12:48.141Z,22.50
2017-08-12T13:15:15.871Z,23.10
2017-08-12T13:17:43.606Z,24.00
2017-08-12T13:20:11.331Z,24.60
2017-08-12T13:22:39.082Z,25.00
2017-08-12T13:25:07.592Z,24.80
2017-08-12T13:27:35.339Z,24.80
2017-08-12T13:30:03.072Z,24.60
2017-08-12T13:32:31.918Z,24.60
2017-08-12T13:34:59.640Z,24.70
2017-08-12T13:37:28.099Z,25.90
2017-08-12T13:39:55.835Z,26.50
2017-08-12T13:42:24.555Z,28.30
2017-08-12T13:44:52.282Z,29.90
2017-08-12T13:47:20.020Z,30.00
2017-08-12T13:49:47.732Z,28.60
2017-08-12T13:52:15.469Z,27.60
2017-08-12T13:54:43.224Z,27.00
2017-08-12T13:57:10.970Z,27.90
2017-08-12T13:59:38.683Z,31.20
2017-08-12T14:02:06.411Z,33.00
2017-08-12T14:04:34.132Z,32.70
2017-08-12T14:07:01.882Z,30.70
2017-08-12T14:09:29.622Z,29.30
2017-08-12T14:11:57.344Z,28.50
2017-08-12T14:14:25.077Z,27.80
2017-08-12T14:16:52.825Z,27.70
2017-08-12T14:19:20.588Z,27.10
2017-08-12T14:21:48.330Z,26.80
2017-08-12T14:24:16.043Z,26.60
2017-08-12T14:26:43.747Z,26.40
2017-08-12T14:29:11.467Z,26.30
2017-08-12T14:31:39.212Z,26.10
2017-08-12T14:34:06.950Z,26.00
2017-08-12T14:36:34.658Z,25.90
2017-08-12T14:39:02.402Z,25.70
2017-08-12T14:41:31.052Z,25.30
2017-08-12T14:43:58.773Z,25.20
2017-08-12T14:46:26.820Z,25.20
2017-08-12T14:48:54.559Z,25.20
2017-08-12T14:51:22.371Z,25.60
2017-08-12T14:53:50.111Z,26.00
2017-08-12T14:56:18.928Z,26.20
2017-08-12T14:58:46.674Z,26.20
2017-08-12T15:01:14.402Z,26.60
2017-08-12T15:03:42.152Z,26.80
2017-08-12T15:06:09.886Z,27.00
2017-08-12T15:08:37.607Z,27.00
2017-08-12T15:11:05.438Z,27.00
2017-08-12T15:13:33.204Z,26.80
2017-08-12T15:16:00.910Z,26.50
2017-08-12T15:18:28.618Z,26.20
2017-08-12T15:20:56.408Z,25.90
2017-08-12T15:23:25.156Z,25.70
2017-08-12T15:25:52.874Z,25.70
2017-08-12T15:28:20.704Z,25.90
2017-08-12T15:30:48.446Z,26.00
2017-08-12T15:33:16.221Z,26.10
2017-08-12T15:35:44.496Z,26.10
2017-08-12T15:38:12.286Z,26.00
2017-08-12T15:40:40.086Z,25.90
2017-08-12T15:43:07.806Z,25.90
2017-08-12T15:45:35.546Z,26.00
2017-08-12T15:48:04.035Z,25.90
2017-08-12T15:50:31.795Z,25.90
2017-08-12T15:52:59.511Z,25.90
2017-08-12T15:55:27.228Z,25.90
2017-08-12T15:57:54.966Z,25.70
2017-08-12T16:00:23.690Z,25.50
2017-08-12T16:02:51.416Z,25.50
2017-08-12T16:05:19.906Z,25.40
2017-08-12T16:07:47.616Z,25.30
2017-08-12T16:10:16.543Z,25.20
2017-08-12T16:12:44.263Z,25.10
2017-08-12T16:15:11.999Z,25.10
2017-08-12T16:17:39.729Z,25.00
2017-08-12T16:20:07.701Z,24.80
2017-08-12T16:22:35.454Z,24.60
2017-08-12T16:25:03.202Z,24.40
2017-08-12T16:27:30.910Z,24.20
2017-08-12T16:29:58.647Z,24.20
2017-08-12T16:32:26.410Z,24.10
2017-08-12T16:34:54.130Z,24.00
2017-08-12T16:37:22.694Z,23.90
2017-08-12T16:39:50.439Z,23.80
2017-08-12T16:42:18.164Z,23.80
2017-08-12T16:44:45.886Z,23.70
2017-08-12T16:47:13.622Z,23.60
2017-08-12T16:49:41.359Z,23.40
2017-08-12T16:52:09.079Z,23.20
2017-08-12T16:54:36.821Z,23.10
2017-08-12T16:57:05.314Z,23.30
2017-08-12T16:59:33.038Z,23.30
2017-08-12T17:02:00.752Z,24.60
2017-08-12T17:04:29.392Z,24.30
2017-08-12T17:06:57.130Z,23.60
2017-08-12T17:09:24.857Z,23.30
2017-08-12T17:11:52.586Z,23.10
2017-08-12T17:14:20.332Z,22.80
2017-08-12T17:16:48.099Z,22.60
2017-08-12T17:19:15.842Z,22.40
2017-08-12T17:21:43.584Z,22.30
2017-08-12T17:24:11.326Z,22.10
2017-08-12T17:26:39.045Z,22.00
2017-08-12T17:29:06.765Z,21.90
2017-08-12T17:31:35.629Z,21.80
2017-08-12T17:34:03.347Z,21.70
2017-08-12T17:36:31.112Z,21.60
2017-08-12T17:38:58.867Z,21.50
2017-08-12T17:41:26.591Z,21.50
2017-08-12T17:43:54.343Z,21.40
2017-08-12T17:46:22.058Z,21.40
2017-08-12T17:48:49.783Z,21.30
2017-08-12T17:51:17.534Z,21.20
2017-08-12T17:53:45.269Z,21.10
2017-08-12T17:56:13.000Z,21.00
2017-08-12T17:58:40.731Z,21.00
2017-08-12T18:01:09.223Z,20.70
2017-08-12T18:03:36.993Z,20.70
2017-08-12T18:06:04.899Z,20.60
2017-08-12T18:08:32.612Z,20.50
2017-08-12T18:11:01.135Z,20.20
2017-08-12T18:13:28.869Z,20.20
2017-08-12T18:15:56.643Z,20.10
2017-08-12T18:18:24.419Z,20.00
2017-08-12T18:20:52.143Z,20.00
2017-08-12T18:23:19.857Z,19.90
2017-08-12T18:25:47.591Z,19.80
2017-08-12T18:28:15.327Z,19.70
2017-08-12T18:30:43.051Z,19.60
2017-08-12T18:33:10.809Z,19.60
2017-08-12T18:35:38.586Z,19.60
2017-08-12T18:38:06.338Z,19.60
2017-08-12T18:40:34.055Z,19.60
2017-08-12T18:43:01.811Z,19.60
2017-08-12T18:45:29.798Z,19.50
2017-08-12T18:47:57.567Z,19.40
2017-08-12T18:50:25.291Z,19.30
2017-08-12T18:52:53.481Z,19.30
2017-08-12T18:55:21.862Z,19.20
2017-08-12T18:57:53.494Z,19.10
2017-08-12T19:00:22.505Z,19.00
2017-08-12T19:02:50.303Z,19.00
2017-08-12T19:05:18.302Z,18.90
2017-08-12T19:07:46.039Z,18.90
2017-08-12T19:10:13.774Z,18.90
2017-08-12T19:12:41.631Z,18.90
2017-08-12T19:15:09.436Z,18.90
2017-08-12T19:17:37.187Z,18.80
2017-08-12T19:20:04.920Z,18.80
2017-08-12T19:22:32.897Z,18.70
2017-08-12T19:25:00.673Z,18.70
2017-08-12T19:27:28.402Z,18.60
2017-08-12T19:29:56.150Z,18.60
2017-08-12T19:32:24.101Z,18.60
2017-08-12T19:34:51.825Z,18.60
2017-08-12T19:37:19.824Z,18.60
2017-08-12T19:39:49.721Z,18.60
2017-08-12T19:42:17.445Z,18.50
2017-08-12T19:44:45.186Z,18.50
2017-08-12T19:47:12.945Z,18.50
2017-08-12T19:49:40.946Z,18.50
2017-08-12T19:52:08.697Z,18.50
2017-08-12T19:54:36.436Z,18.50
2017-08-12T19:57:05.802Z,18.50
2017-08-12T19:59:33.515Z,18.50
2017-08-12T20:02:01.241Z,18.40
2017-08-12T20:04:28.982Z,18.40
2017-08-12T20:06:56.986Z,18.40
2017-08-12T20:09:24.818Z,18.40
2017-08-12T20:11:52.560Z,18.40
2017-08-12T20:14:20.324Z,18.30
2017-08-12T20:16:48.079Z,18.40
2017-08-12T20:19:15.997Z,18.30
2017-08-12T20:21:43.818Z,18.30
2017-08-12T20:24:11.591Z,18.30
2017-08-12T20:26:39.423Z,18.20
2017-08-12T20:29:07.148Z,18.20
2017-08-12T20:31:35.867Z,18.10
2017-08-12T20:34:03.651Z,18.10
2017-08-12T20:36:31.395Z,18.00
2017-08-12T20:38:59.120Z,17.90
2017-08-12T20:41:27.638Z,17.80
2017-08-12T20:43:55.577Z,17.80
2017-08-12T20:46:23.660Z,17.70
2017-08-12T20:48:52.259Z,17.70
2017-08-12T20:51:20.116Z,17.60
2017-08-12T20:53:47.854Z,17.60
2017-08-12T20:56:15.616Z,17.60
2017-08-12T20:58:44.515Z,17.60
2017-08-12T21:01:12.280Z,17.60
2017-08-12T21:03:40.043Z,17.60
2017-08-12T21:06:07.791Z,17.60
2017-08-12T21:08:35.532Z,17.60
2017-08-12T21:11:04.659Z,17.50
2017-08-12T21:13:32.503Z,17.60
2017-08-12T21:16:00.246Z,17.60
2017-08-12T21:18:28.000Z,17.50
2017-08-12T21:20:55.769Z,17.50
2017-08-12T21:23:23.515Z,17.40
2017-08-12T21:25:51.701Z,17.40
2017-08-12T21:28:19.504Z,17.40
2017-08-12T21:30:47.268Z,17.30
2017-08-12T21:33:15.006Z,17.30
2017-08-12T21:35:43.736Z,17.30
2017-08-12T21:38:11.468Z,17.40
2017-08-12T21:40:39.196Z,17.40
2017-08-12T21:43:06.922Z,17.40
2017-08-12T21:45:35.428Z,17.50
2017-08-12T21:48:03.165Z,17.50
2017-08-12T21:50:30.907Z,17.50
2017-08-12T21:52:58.662Z,17.50
2017-08-12T21:55:26.402Z,17.50
2017-08-12T21:57:54.119Z,17.40
2017-08-12T22:00:21.856Z,17.50
2017-08-12T22:02:49.584Z,17.50
2017-08-12T22:05:17.307Z,17.50
2017-08-12T22:07:45.069Z,17.40
2017-08-12T22:10:12.799Z,17.40
2017-08-12T22:12:40.523Z,17.40
2017-08-12T22:15:08.256Z,17.40
2017-08-12T22:17:36.022Z,17.40
2017-08-12T22:20:04.819Z,17.40
2017-08-12T22:22:32.552Z,17.40
2017-08-12T22:25:00.297Z,17.40
2017-08-12T22:27:28.031Z,17.30
2017-08-12T22:29:56.390Z,17.40
2017-08-12T22:32:24.174Z,17.40
2017-08-12T22:34:51.888Z,17.40
2017-08-12T22:37:19.771Z,17.30
2017-08-12T22:39:47.576Z,17.30
2017-08-12T22:42:15.312Z,17.30
2017-08-12T22:44:43.045Z,17.20
2017-08-12T22:47:10.805Z,17.30
2017-08-12T22:49:38.564Z,17.20
2017-08-12T22:52:06.292Z,17.20
2017-08-12T22:54:34.019Z,17.20
2017-08-12T22:57:01.752Z,17.20
2017-08-12T22:59:29.516Z,17.20
2017-08-12T23:01:57.251Z,17.20
2017-08-12T23:04:25.004Z,17.20
2017-08-12T23:06:52.757Z,17.20
2017-08-12T23:09:21.251Z,17.20
2017-08-12T23:11:48.991Z,17.20
2017-08-12T23:14:16.726Z,17.10
2017-08-12T23:16:44.451Z,17.20
2017-08-12T23:19:12.199Z,17.10
2017-08-12T23:21:39.920Z,17.20
2017-08-12T23:24:07.654Z,17.20
2017-08-12T23:26:35.374Z,17.10
2017-08-12T23:29:03.086Z,17.10
2017-08-12T23:31:31.594Z,17.20
2017-08-12T23:33:59.338Z,17.20
2017-08-12T23:36:27.046Z,17.10
2017-08-12T23:38:55.568Z,17.10
2017-08-12T23:41:23.311Z,17.00
2017-08-12T23:43:51.025Z,17.00
2017-08-12T23:46:18.749Z,17.00
2017-08-12T23:48:46.486Z,17.00
2017-08-12T23:51:14.258Z,17.00
2017-08-12T23:53:41.981Z,17.00
2017-08-12T23:56:09.747Z,17.00
2017-08-12T23:58:37.466Z,16.90
